createdAt,value
2022-09-21T00:00:45.324Z,4.65
2022-09-21T00:03:30.627Z,4.22
2022-09-21T00:06:18.884Z,4.88
2022-09-21T00:09:05.304Z,4.20
2022-09-21T00:11:53.244Z,4.95
2022-09-21T00:14:40.697Z,6.15
2022-09-21T00:17:26.387Z,11.70
2022-09-21T00:20:12.122Z,6.10
2022-09-21T00:22:57.899Z,5.65
2022-09-21T00:25:43.268Z,5.00
2022-09-21T00:28:28.653Z,6.00
2022-09-21T00:31:18.232Z,6.13
2022-09-21T00:34:07.575Z,6.03
2022-09-21T00:36:53.233Z,6.13
2022-09-21T00:39:38.659Z,6.10
2022-09-21T00:42:33.861Z,5.65
2022-09-21T00:45:22.027Z,5.45
2022-09-21T00:48:07.676Z,5.38
2022-09-21T00:50:55.456Z,5.43
2022-09-21T00:53:40.789Z,5.53
2022-09-21T00:56:26.836Z,4.95
2022-09-21T00:59:18.944Z,5.18
2022-09-21T01:02:07.174Z,5.47
2022-09-21T01:04:56.606Z,5.40
2022-09-21T01:07:46.229Z,5.05
2022-09-21T01:10:46.767Z,5.20
2022-09-21T01:13:54.783Z,4.97
2022-09-21T01:17:29.387Z,5.13
2022-09-21T01:20:17.720Z,5.70
2022-09-21T01:23:18.235Z,5.47
2022-09-21T01:26:14.252Z,5.95
2022-09-21T01:29:16.886Z,4.55
2022-09-21T01:32:12.836Z,4.80
2022-09-21T01:35:19.613Z,4.95
2022-09-21T01:38:19.842Z,5.35
2022-09-21T01:41:08.389Z,5.45
2022-09-21T01:43:57.767Z,5.35
2022-09-21T01:46:45.726Z,5.13
2022-09-21T01:49:36.675Z,5.30
2022-09-21T01:52:37.328Z,5.22
2022-09-21T01:55:40.223Z,4.88
2022-09-21T01:59:07.012Z,4.90
2022-09-21T02:01:58.798Z,4.45
2022-09-21T02:04:44.171Z,4.63
2022-09-21T02:07:30.656Z,4.85
2022-09-21T02:10:22.255Z,5.28
2022-09-21T02:13:09.608Z,5.13
2022-09-21T02:16:39.220Z,5.40
2022-09-21T02:19:50.729Z,5.32
2022-09-21T02:22:49.473Z,6.40
2022-09-21T02:25:59.221Z,4.68
2022-09-21T02:29:01.605Z,4.95
2022-09-21T02:31:59.611Z,5.28
2022-09-21T02:34:49.688Z,4.70
2022-09-21T02:37:42.123Z,5.30
2022-09-21T02:40:40.614Z,4.20
2022-09-21T02:43:33.570Z,4.90
2022-09-21T02:46:26.423Z,5.28
2022-09-21T02:49:18.013Z,5.10
2022-09-21T02:52:11.636Z,5.28
2022-09-21T02:54:57.486Z,5.32
2022-09-21T02:57:43.892Z,4.85
2022-09-21T03:00:29.625Z,4.60
2022-09-21T03:03:17.647Z,5.60
2022-09-21T03:06:03.577Z,5.25
2022-09-21T03:08:49.077Z,6.95
2022-09-21T03:11:36.161Z,7.00
2022-09-21T03:14:22.132Z,8.10
2022-09-21T03:17:08.047Z,7.43
2022-09-21T03:19:55.092Z,7.10
2022-09-21T03:22:40.386Z,6.97
2022-09-21T03:25:27.036Z,7.80
2022-09-21T03:28:13.805Z,7.07
2022-09-21T03:30:59.044Z,6.65
2022-09-21T03:33:44.542Z,6.85
2022-09-21T03:36:29.809Z,6.43
2022-09-21T03:39:15.191Z,5.97
2022-09-21T03:42:02.810Z,7.03
2022-09-21T03:44:48.426Z,6.88
2022-09-21T03:47:34.089Z,6.00
2022-09-21T03:50:19.930Z,4.93
2022-09-21T03:53:05.727Z,4.32
2022-09-21T03:55:51.036Z,3.90
2022-09-21T03:58:36.304Z,4.22
2022-09-21T04:01:21.545Z,3.45
2022-09-21T04:04:07.331Z,3.58
2022-09-21T04:06:52.646Z,5.00
2022-09-21T04:09:38.428Z,3.22
2022-09-21T04:12:23.725Z,3.38
2022-09-21T04:15:13.081Z,3.63
2022-09-21T04:17:59.204Z,3.70
2022-09-21T04:20:44.583Z,3.60
2022-09-21T04:23:29.860Z,3.80
2022-09-21T04:26:25.258Z,3.78
2022-09-21T04:29:11.324Z,4.18
2022-09-21T04:31:58.201Z,3.90
2022-09-21T04:34:43.627Z,4.00
2022-09-21T04:37:29.262Z,3.90
2022-09-21T04:40:14.544Z,3.50
2022-09-21T04:43:00.262Z,8.10
2022-09-21T04:45:45.599Z,6.13
2022-09-21T04:48:31.269Z,5.82
2022-09-21T04:51:17.403Z,5.20
2022-09-21T04:54:02.974Z,5.20
2022-09-21T04:56:48.422Z,5.25
2022-09-21T04:59:33.598Z,5.07
2022-09-21T05:02:19.275Z,5.38
2022-09-21T05:05:04.794Z,5.43
2022-09-21T05:07:49.858Z,5.53
2022-09-21T05:10:35.797Z,5.28
2022-09-21T05:13:21.239Z,5.65
2022-09-21T05:16:07.182Z,5.68
2022-09-21T05:18:56.975Z,5.63
2022-09-21T05:21:42.282Z,5.07
2022-09-21T05:24:27.835Z,4.80
2022-09-21T05:27:13.510Z,4.60
2022-09-21T05:29:59.104Z,4.30
2022-09-21T05:32:49.334Z,4.53
2022-09-21T05:35:58.152Z,4.70
2022-09-21T05:38:44.002Z,4.40
2022-09-21T05:41:29.844Z,3.90
2022-09-21T05:44:15.497Z,3.92
2022-09-21T05:47:25.635Z,4.45
2022-09-21T05:50:26.296Z,4.30
2022-09-21T05:53:47.407Z,4.45
2022-09-21T05:56:44.727Z,4.60
2022-09-21T05:59:57.757Z,4.88
2022-09-21T06:03:27.128Z,5.53
2022-09-21T06:06:12.493Z,7.47
2022-09-21T06:08:58.195Z,10.20
2022-09-21T06:11:43.704Z,7.10
2022-09-21T06:14:29.168Z,5.05
2022-09-21T06:17:14.770Z,5.07
2022-09-21T06:20:00.205Z,5.30
2022-09-21T06:22:45.545Z,4.72
2022-09-21T06:25:31.082Z,5.03
2022-09-21T06:28:16.512Z,8.05
2022-09-21T06:31:02.158Z,5.82
2022-09-21T06:33:48.321Z,4.63
2022-09-21T06:36:33.910Z,5.32
2022-09-21T06:39:19.682Z,5.47
2022-09-21T06:42:04.961Z,5.22
2022-09-21T06:44:50.666Z,4.88
2022-09-21T06:47:36.128Z,5.07
2022-09-21T06:50:22.140Z,5.95
2022-09-21T06:53:09.389Z,6.45
2022-09-21T06:55:54.975Z,6.22
2022-09-21T06:58:40.502Z,7.53
2022-09-21T07:01:26.183Z,6.70
2022-09-21T07:04:11.570Z,7.25
2022-09-21T07:06:58.228Z,7.72
2022-09-21T07:12:51.763Z,5.78
2022-09-21T07:15:37.271Z,6.70
2022-09-21T07:18:22.757Z,6.90
2022-09-21T07:21:09.860Z,7.70
2022-09-21T07:23:55.021Z,7.15
2022-09-21T07:26:40.690Z,8.57
2022-09-21T07:29:26.202Z,7.90
2022-09-21T07:32:13.845Z,7.47
2022-09-21T07:34:59.373Z,7.78
2022-09-21T07:37:45.124Z,6.85
2022-09-21T07:40:31.456Z,5.85
2022-09-21T07:43:18.057Z,5.70
2022-09-21T07:46:03.557Z,5.90
2022-09-21T07:48:48.989Z,5.70
2022-09-21T07:51:34.824Z,6.05
2022-09-21T07:54:19.963Z,5.38
2022-09-21T07:57:24.193Z,6.28
2022-09-21T08:00:10.226Z,5.90
2022-09-21T08:02:55.562Z,6.07
2022-09-21T08:05:41.206Z,6.65
2022-09-21T08:08:26.877Z,5.95
2022-09-21T08:11:12.388Z,5.78
2022-09-21T08:14:01.418Z,5.60
2022-09-21T08:16:48.286Z,5.95
2022-09-21T08:19:34.580Z,5.85
2022-09-21T08:22:23.002Z,6.57
2022-09-21T08:25:08.592Z,5.90
2022-09-21T08:27:58.553Z,5.68
2022-09-21T08:30:43.636Z,5.03
2022-09-21T08:33:29.981Z,4.80
2022-09-21T08:36:15.663Z,4.85
2022-09-21T08:39:01.142Z,4.18
2022-09-21T08:42:09.845Z,5.45
2022-09-21T08:45:07.583Z,4.70
2022-09-21T08:47:58.106Z,2.90
2022-09-21T08:50:53.158Z,3.40
2022-09-21T08:53:43.155Z,3.25
2022-09-21T08:56:47.057Z,3.50
2022-09-21T08:59:35.342Z,3.28
2022-09-21T09:02:47.893Z,3.58
2022-09-21T09:05:48.373Z,3.80
2022-09-21T09:08:48.840Z,3.30
2022-09-21T09:11:37.201Z,3.13
2022-09-21T09:14:55.924Z,2.85
2022-09-21T09:18:12.251Z,2.10
2022-09-21T09:23:51.240Z,2.22
2022-09-21T09:26:50.791Z,2.10
2022-09-21T09:29:54.035Z,2.30
2022-09-21T09:32:54.159Z,3.97
2022-09-21T09:35:45.740Z,1.80
2022-09-21T09:38:45.314Z,1.95
2022-09-21T09:41:39.613Z,1.63
2022-09-21T09:44:53.406Z,1.75
2022-09-21T09:47:50.702Z,1.80
2022-09-21T09:50:39.562Z,1.92
2022-09-21T09:53:26.881Z,1.75
2022-09-21T09:56:14.816Z,1.95
2022-09-21T09:59:08.151Z,1.73
2022-09-21T10:02:03.312Z,1.67
2022-09-21T10:05:03.755Z,1.38
2022-09-21T10:07:49.596Z,1.40
2022-09-21T10:10:36.972Z,1.10
2022-09-21T10:13:33.848Z,1.10
2022-09-21T10:16:23.223Z,1.10
2022-09-21T10:19:25.630Z,1.00
2022-09-21T10:22:20.596Z,1.02
2022-09-21T10:25:08.347Z,1.10
2022-09-21T10:27:55.891Z,0.98
2022-09-21T10:30:41.858Z,1.05
2022-09-21T10:33:27.603Z,1.02
2022-09-21T10:36:27.239Z,1.25
2022-09-21T10:39:24.308Z,1.20
2022-09-21T10:42:16.400Z,1.17
2022-09-21T10:45:24.058Z,3.08
2022-09-21T10:48:16.529Z,2.08
2022-09-21T10:51:02.775Z,1.33
2022-09-21T10:53:53.731Z,1.10
2022-09-21T10:57:00.877Z,1.20
2022-09-21T10:59:46.565Z,1.25
2022-09-21T11:02:31.683Z,1.30
2022-09-21T11:05:41.545Z,1.38
2022-09-21T11:08:40.307Z,1.50
2022-09-21T11:11:34.709Z,1.40
2022-09-21T11:14:49.928Z,1.25
2022-09-21T11:17:49.128Z,1.15
2022-09-21T11:20:48.678Z,1.35
2022-09-21T11:24:03.210Z,1.17
2022-09-21T11:26:54.629Z,1.30
2022-09-21T11:30:04.140Z,1.25
2022-09-21T11:33:24.868Z,1.00
2022-09-21T11:36:46.101Z,2.25
2022-09-21T11:39:54.828Z,1.00
2022-09-21T11:43:02.175Z,1.10
2022-09-21T11:46:00.991Z,0.80
2022-09-21T11:49:08.413Z,0.77
2022-09-21T11:52:21.603Z,0.80
2022-09-21T11:55:37.900Z,0.80
2022-09-21T11:58:38.923Z,0.90
2022-09-21T12:01:50.090Z,0.77
2022-09-21T12:04:49.869Z,0.82
2022-09-21T12:08:04.294Z,0.90
2022-09-21T12:11:16.869Z,0.68
2022-09-21T12:14:34.664Z,0.60
2022-09-21T12:17:45.246Z,0.60
2022-09-21T12:20:54.518Z,0.65
2022-09-21T12:24:01.502Z,0.50
2022-09-21T12:26:55.693Z,0.70
2022-09-21T12:29:50.792Z,0.63
2022-09-21T12:32:57.785Z,0.57
2022-09-21T12:35:59.092Z,0.50
2022-09-21T12:38:54.804Z,0.80
2022-09-21T12:41:49.795Z,0.70
2022-09-21T12:44:56.402Z,0.60
2022-09-21T12:47:55.250Z,0.70
2022-09-21T12:50:50.070Z,0.50
2022-09-21T12:53:38.733Z,0.70
2022-09-21T12:56:24.102Z,0.65
2022-09-21T12:59:31.595Z,0.70
2022-09-21T13:02:22.603Z,0.50
2022-09-21T13:05:39.371Z,0.57
2022-09-21T13:08:36.760Z,0.65
2022-09-21T13:11:23.447Z,0.60
2022-09-21T13:14:12.140Z,0.50
2022-09-21T13:17:01.079Z,0.70
2022-09-21T13:20:03.754Z,0.65
2022-09-21T13:22:49.323Z,0.60
2022-09-21T13:25:37.645Z,0.60
2022-09-21T13:28:23.887Z,0.60
2022-09-21T13:31:41.292Z,0.68
2022-09-21T13:34:35.970Z,0.60
2022-09-21T13:37:28.545Z,0.52
2022-09-21T13:40:13.694Z,0.70
2022-09-21T13:43:19.156Z,0.70
2022-09-21T13:46:04.461Z,0.63
2022-09-21T13:48:53.999Z,0.40
2022-09-21T13:52:03.481Z,0.73
2022-09-21T13:55:01.434Z,0.40
2022-09-21T13:57:50.507Z,0.70
2022-09-21T14:00:51.639Z,0.50
2022-09-21T14:03:40.752Z,1.38
2022-09-21T14:06:35.728Z,0.60
2022-09-21T14:09:38.182Z,0.47
2022-09-21T14:12:26.160Z,0.50
2022-09-21T14:15:18.010Z,0.55
2022-09-21T14:18:17.411Z,0.40
2022-09-21T14:21:17.602Z,0.43
2022-09-21T14:24:06.495Z,0.50
2022-09-21T14:27:03.662Z,0.63
2022-09-21T14:29:56.299Z,0.55
2022-09-21T14:33:15.193Z,0.55
2022-09-21T14:36:07.549Z,0.40
2022-09-21T14:39:00.402Z,1.08
2022-09-21T14:41:48.856Z,0.63
2022-09-21T14:44:35.382Z,0.60
2022-09-21T14:47:42.019Z,0.52
2022-09-21T14:50:47.128Z,0.45
2022-09-21T14:53:48.390Z,0.47
2022-09-21T14:56:55.593Z,0.50
2022-09-21T15:00:07.363Z,0.60
2022-09-21T15:03:11.699Z,0.68
2022-09-21T15:06:56.666Z,0.50
2022-09-21T15:10:22.142Z,0.60
2022-09-21T15:13:19.649Z,0.40
2022-09-21T15:16:17.801Z,0.40
2022-09-21T15:19:13.937Z,0.60
2022-09-21T15:22:20.567Z,0.60
2022-09-21T15:25:13.179Z,0.52
2022-09-21T15:28:00.141Z,0.80
2022-09-21T15:30:46.604Z,0.55
2022-09-21T15:33:33.203Z,0.70
2022-09-21T15:36:28.315Z,0.70
2022-09-21T15:39:30.838Z,0.77
2022-09-21T15:42:19.641Z,0.82
2022-09-21T15:45:17.843Z,0.68
2022-09-21T15:48:06.993Z,0.60
2022-09-21T15:50:59.184Z,0.90
2022-09-21T15:53:49.186Z,0.68
2022-09-21T15:56:40.509Z,0.70
2022-09-21T15:59:27.136Z,0.70
2022-09-21T16:02:19.631Z,0.70
2022-09-21T16:05:08.057Z,0.70
2022-09-21T16:08:24.113Z,0.80
2022-09-21T16:11:26.403Z,0.70
2022-09-21T16:14:34.965Z,0.73
2022-09-21T16:17:24.026Z,0.68
2022-09-21T16:20:23.365Z,0.70
2022-09-21T16:23:23.204Z,0.90
2022-09-21T16:26:25.801Z,1.17
2022-09-21T16:29:20.851Z,0.82
2022-09-21T16:32:18.389Z,0.50
2022-09-21T16:35:29.179Z,0.70
2022-09-21T16:38:16.673Z,0.80
2022-09-21T16:41:02.664Z,0.88
2022-09-21T16:43:51.041Z,0.60
2022-09-21T16:46:36.359Z,0.80
2022-09-21T16:49:26.807Z,0.80
2022-09-21T16:52:16.943Z,0.90
2022-09-21T16:55:02.157Z,0.80
2022-09-21T16:57:48.901Z,0.68
2022-09-21T17:00:39.155Z,0.70
2022-09-21T17:03:24.768Z,0.90
2022-09-21T17:06:18.869Z,1.00
2022-09-21T17:09:28.950Z,0.80
2022-09-21T17:12:17.861Z,0.70
2022-09-21T17:15:04.681Z,0.80
2022-09-21T17:17:50.451Z,0.90
2022-09-21T17:20:42.139Z,0.90
2022-09-21T17:23:29.255Z,1.00
2022-09-21T17:26:18.018Z,0.98
2022-09-21T17:29:05.757Z,0.90
2022-09-21T17:31:53.627Z,0.90
2022-09-21T17:34:39.404Z,0.90
2022-09-21T17:37:25.327Z,1.45
2022-09-21T17:40:12.215Z,1.00
2022-09-21T17:43:13.581Z,0.90
2022-09-21T17:46:27.842Z,1.20
2022-09-21T17:49:13.250Z,1.55
2022-09-21T17:52:17.714Z,1.30
2022-09-21T17:55:08.453Z,1.00
2022-09-21T17:58:27.792Z,1.50
2022-09-21T18:01:34.955Z,1.90
2022-09-21T18:04:20.388Z,1.20
2022-09-21T18:07:05.960Z,1.30
2022-09-21T18:09:51.886Z,1.33
2022-09-21T18:12:59.180Z,1.25
2022-09-21T18:16:03.726Z,1.30
2022-09-21T18:19:24.701Z,0.98
2022-09-21T18:22:51.631Z,0.80
2022-09-21T18:25:47.775Z,0.85
2022-09-21T18:28:52.435Z,1.05
2022-09-21T18:31:56.443Z,0.90
2022-09-21T18:35:08.738Z,1.00
2022-09-21T18:38:17.628Z,1.00
2022-09-21T18:41:20.351Z,1.05
2022-09-21T18:44:11.712Z,1.10
2022-09-21T18:47:03.259Z,1.20
2022-09-21T18:50:01.839Z,1.88
2022-09-21T18:53:09.330Z,1.65
2022-09-21T18:55:54.760Z,1.70
2022-09-21T18:58:42.640Z,1.80
2022-09-21T19:01:32.975Z,1.90
2022-09-21T19:04:19.310Z,1.70
2022-09-21T19:07:30.321Z,1.83
2022-09-21T19:10:25.624Z,2.05
2022-09-21T19:13:49.537Z,2.10
2022-09-21T19:16:57.206Z,2.00
2022-09-21T19:20:04.657Z,1.92
2022-09-21T19:23:28.163Z,2.17
2022-09-21T19:26:34.489Z,2.05
2022-09-21T19:29:35.329Z,1.90
2022-09-21T19:32:35.799Z,2.40
2022-09-21T19:35:28.840Z,2.60
2022-09-21T19:38:14.405Z,2.42
2022-09-21T19:41:04.613Z,2.78
2022-09-21T19:44:08.058Z,2.72
2022-09-21T19:47:29.379Z,3.20
2022-09-21T19:50:41.027Z,2.78
2022-09-21T19:53:45.469Z,3.10
2022-09-21T19:56:55.352Z,2.60
2022-09-21T19:59:43.813Z,3.00
2022-09-21T20:02:49.087Z,3.17
2022-09-21T20:08:45.234Z,2.78
2022-09-21T20:11:50.499Z,3.10
2022-09-21T20:14:51.532Z,2.88
2022-09-21T20:17:53.434Z,2.63
2022-09-21T20:20:38.802Z,2.38
2022-09-21T20:23:24.606Z,2.40
2022-09-21T20:26:24.615Z,2.53
2022-09-21T20:29:10.454Z,2.38
2022-09-21T20:31:56.363Z,2.80
2022-09-21T20:34:41.823Z,2.25
2022-09-21T20:37:27.388Z,2.40
2022-09-21T20:40:14.690Z,1.98
2022-09-21T20:43:01.297Z,2.55
2022-09-21T20:45:49.258Z,2.97
2022-09-21T20:48:36.064Z,3.90
2022-09-21T20:51:21.660Z,3.25
2022-09-21T20:54:07.557Z,2.88
2022-09-21T20:56:53.141Z,3.03
2022-09-21T20:59:39.576Z,2.90
2022-09-21T21:02:25.104Z,3.35
2022-09-21T21:05:11.418Z,3.03
2022-09-21T21:07:57.500Z,3.08
2022-09-21T21:10:47.159Z,3.10
2022-09-21T21:13:33.270Z,3.28
2022-09-21T21:16:18.843Z,3.38
2022-09-21T21:19:04.291Z,3.38
2022-09-21T21:21:49.824Z,4.18
2022-09-21T21:24:41.553Z,4.22
2022-09-21T21:27:28.021Z,4.10
2022-09-21T21:30:13.731Z,3.97
2022-09-21T21:32:59.244Z,3.88
2022-09-21T21:35:44.683Z,4.10
2022-09-21T21:38:30.289Z,4.95
2022-09-21T21:41:16.155Z,4.55
2022-09-21T21:44:02.256Z,3.92
2022-09-21T21:46:48.065Z,3.72
2022-09-21T21:49:33.792Z,4.10
2022-09-21T21:52:19.348Z,4.07
2022-09-21T21:55:06.074Z,4.00
2022-09-21T21:57:52.031Z,3.90
2022-09-21T22:00:37.542Z,3.80
2022-09-21T22:03:23.366Z,3.45
2022-09-21T22:06:10.528Z,3.63
2022-09-21T22:08:56.763Z,3.40
2022-09-21T22:11:42.592Z,3.60
2022-09-21T22:14:28.316Z,4.68
2022-09-21T22:17:14.411Z,4.93
2022-09-21T22:20:00.294Z,5.28
2022-09-21T22:22:45.887Z,5.30
2022-09-21T22:25:31.424Z,5.57
2022-09-21T22:28:17.017Z,4.50
2022-09-21T22:31:04.469Z,4.50
2022-09-21T22:33:50.201Z,4.22
2022-09-21T22:36:37.246Z,4.68
2022-09-21T22:39:22.605Z,4.65
2022-09-21T22:42:11.032Z,4.60
2022-09-21T22:44:56.583Z,4.22
2022-09-21T22:47:41.931Z,4.55
2022-09-21T22:50:27.565Z,5.47
2022-09-21T22:53:13.342Z,5.60
2022-09-21T22:56:06.130Z,5.25
2022-09-21T22:58:54.446Z,5.22
2022-09-21T23:01:41.395Z,5.70
2022-09-21T23:04:27.187Z,5.72
2022-09-21T23:07:12.672Z,5.90
2022-09-21T23:09:58.233Z,5.55
2022-09-21T23:12:43.645Z,5.82
2022-09-21T23:15:29.324Z,5.20
2022-09-21T23:18:14.794Z,5.78
2022-09-21T23:21:02.523Z,5.20
2022-09-21T23:23:48.679Z,4.85
2022-09-21T23:26:34.961Z,4.88
2022-09-21T23:29:20.498Z,4.95
2022-09-21T23:32:06.430Z,4.38
2022-09-21T23:34:52.254Z,4.22
2022-09-21T23:37:37.899Z,4.80
2022-09-21T23:40:23.413Z,5.15
2022-09-21T23:43:08.810Z,5.38
2022-09-21T23:45:54.543Z,5.05
2022-09-21T23:48:40.612Z,4.55
2022-09-21T23:51:26.651Z,4.85
2022-09-21T23:54:12.579Z,4.50
2022-09-21T23:56:57.990Z,4.55
2022-09-21T23:59:43.674Z,4.32
